createdAt,value
2023-03-05T00:02:07.036Z,23.98
2023-03-05T00:04:34.121Z,23.23
2023-03-05T00:07:00.942Z,22.65
2023-03-05T00:09:27.706Z,22.38
2023-03-05T00:11:54.357Z,23.35
2023-03-05T00:14:21.034Z,23.55
2023-03-05T00:16:47.980Z,23.98
2023-03-05T00:19:14.793Z,23.08
2023-03-05T00:21:42.260Z,22.48
2023-03-05T00:24:13.336Z,23.77
2023-03-05T00:26:40.487Z,23.45
2023-03-05T00:29:09.083Z,23.20
2023-03-05T00:31:37.844Z,23.67
2023-03-05T00:34:11.453Z,22.50
2023-03-05T00:36:47.616Z,23.65
2023-03-05T00:39:14.877Z,23.85
2023-03-05T00:41:41.716Z,22.10
2023-03-05T00:44:08.962Z,22.25
2023-03-05T00:46:36.596Z,22.33
2023-03-05T00:49:04.184Z,21.67
2023-03-05T00:51:31.047Z,22.75
2023-03-05T00:53:57.899Z,23.58
2023-03-05T00:56:24.809Z,22.63
2023-03-05T00:58:53.200Z,23.67
2023-03-05T01:01:20.123Z,23.02
2023-03-05T01:03:46.861Z,21.98
2023-03-05T01:06:16.452Z,22.13
2023-03-05T01:08:44.093Z,22.17
2023-03-05T01:11:11.625Z,21.88
2023-03-05T01:13:41.578Z,21.67
2023-03-05T01:16:09.005Z,23.33
2023-03-05T01:18:36.984Z,22.08
2023-03-05T01:21:04.065Z,22.25
2023-03-05T01:23:30.750Z,22.15
2023-03-05T01:25:59.101Z,22.45
2023-03-05T01:28:26.691Z,20.70
2023-03-05T01:30:53.474Z,21.60
2023-03-05T01:33:20.506Z,22.98
2023-03-05T01:35:48.821Z,21.23
2023-03-05T01:38:16.335Z,23.00
2023-03-05T01:40:43.854Z,22.55
2023-03-05T01:43:13.612Z,20.70
2023-03-05T01:46:18.786Z,22.35
2023-03-05T01:48:50.173Z,23.40
2023-03-05T01:51:19.976Z,21.25
2023-03-05T01:53:47.655Z,21.90
2023-03-05T01:56:15.582Z,21.90
2023-03-05T01:58:42.525Z,22.75
2023-03-05T02:01:09.971Z,22.25
2023-03-05T02:03:37.768Z,22.38
2023-03-05T02:06:05.094Z,22.92
2023-03-05T02:08:36.405Z,23.55
2023-03-05T02:11:04.068Z,21.80
2023-03-05T02:13:33.856Z,23.80
2023-03-05T02:16:03.201Z,23.13
2023-03-05T02:18:30.125Z,21.65
2023-03-05T02:20:56.857Z,20.90
2023-03-05T02:23:26.417Z,22.73
2023-03-05T02:25:53.574Z,22.40
2023-03-05T02:28:26.195Z,22.55
2023-03-05T02:30:53.250Z,22.30
2023-03-05T02:33:20.473Z,23.15
2023-03-05T02:35:47.627Z,21.85
2023-03-05T02:38:17.624Z,21.92
2023-03-05T02:40:44.685Z,22.55
2023-03-05T02:43:11.901Z,23.95
2023-03-05T02:45:39.313Z,22.30
2023-03-05T02:48:06.427Z,23.10
2023-03-05T02:50:34.226Z,23.42
2023-03-05T02:53:01.139Z,23.85
2023-03-05T02:55:28.130Z,22.85
2023-03-05T02:57:55.246Z,23.65
2023-03-05T03:00:22.168Z,22.17
2023-03-05T03:02:49.244Z,24.92
2023-03-05T03:05:16.469Z,23.10
2023-03-05T03:07:43.273Z,22.80
2023-03-05T03:10:10.825Z,23.65
2023-03-05T03:12:39.114Z,22.20
2023-03-05T03:15:07.376Z,23.30
2023-03-05T03:17:36.121Z,23.85
2023-03-05T03:20:05.199Z,24.13
2023-03-05T03:22:31.974Z,23.08
2023-03-05T03:24:58.720Z,23.90
2023-03-05T03:27:25.468Z,22.85
2023-03-05T03:29:52.247Z,23.17
2023-03-05T03:32:19.163Z,24.02
2023-03-05T03:34:48.086Z,23.42
2023-03-05T03:37:15.242Z,23.63
2023-03-05T03:39:41.979Z,22.50
2023-03-05T03:42:08.758Z,23.42
2023-03-05T03:44:35.511Z,24.25
2023-03-05T03:47:02.637Z,23.13
2023-03-05T03:49:29.541Z,23.23
2023-03-05T03:51:57.572Z,22.88
2023-03-05T03:54:25.205Z,22.90
2023-03-05T03:56:52.752Z,24.23
2023-03-05T03:59:19.703Z,24.25
2023-03-05T04:01:47.205Z,23.45
2023-03-05T04:04:14.162Z,22.88
2023-03-05T04:06:41.359Z,23.45
2023-03-05T04:09:08.756Z,23.88
2023-03-05T04:11:36.758Z,23.98
2023-03-05T04:14:07.309Z,24.65
2023-03-05T04:16:34.120Z,23.63
2023-03-05T04:19:00.891Z,24.60
2023-03-05T04:21:27.679Z,23.50
2023-03-05T04:23:54.528Z,24.55
2023-03-05T04:26:21.256Z,24.42
2023-03-05T04:28:48.327Z,25.30
2023-03-05T04:31:17.463Z,24.27
2023-03-05T04:33:44.243Z,25.23
2023-03-05T04:36:10.928Z,23.40
2023-03-05T04:38:37.700Z,24.45
2023-03-05T04:41:04.565Z,23.40
2023-03-05T04:43:31.407Z,24.60
2023-03-05T04:45:58.267Z,25.48
2023-03-05T04:48:26.260Z,22.55
2023-03-05T04:50:53.012Z,24.77
2023-03-05T04:53:19.700Z,23.60
2023-03-05T04:55:46.365Z,22.80
2023-03-05T04:58:13.057Z,22.35
2023-03-05T05:00:39.713Z,22.58
2023-03-05T05:03:06.555Z,22.70
2023-03-05T05:05:33.319Z,23.25
2023-03-05T05:08:00.029Z,23.00
2023-03-05T05:10:27.365Z,21.50
2023-03-05T05:12:54.288Z,21.70
2023-03-05T05:15:21.295Z,20.75
2023-03-05T05:17:48.368Z,22.20
2023-03-05T05:20:16.225Z,20.23
2023-03-05T05:22:43.951Z,21.20
2023-03-05T05:25:11.524Z,21.33
2023-03-05T05:27:40.083Z,23.70
2023-03-05T05:30:07.847Z,22.90
2023-03-05T05:32:34.824Z,22.08
2023-03-05T05:35:01.643Z,21.27
2023-03-05T05:37:30.146Z,21.73
2023-03-05T05:39:57.084Z,21.70
2023-03-05T05:42:27.713Z,21.27
2023-03-05T05:44:55.666Z,21.38
2023-03-05T05:47:22.433Z,21.77
2023-03-05T05:49:49.251Z,22.15
2023-03-05T05:52:16.136Z,21.58
2023-03-05T05:54:43.484Z,19.08
2023-03-05T05:57:10.324Z,20.98
2023-03-05T05:59:38.228Z,19.05
2023-03-05T06:02:05.631Z,20.13
2023-03-05T06:04:32.497Z,20.75
2023-03-05T06:06:59.972Z,20.73
2023-03-05T06:09:27.240Z,20.42
2023-03-05T06:11:54.115Z,21.35
2023-03-05T06:14:21.142Z,19.83
2023-03-05T06:16:47.910Z,21.05
2023-03-05T06:19:16.141Z,22.42
2023-03-05T06:21:43.500Z,21.63
2023-03-05T06:24:11.582Z,22.10
2023-03-05T06:26:38.612Z,20.20
2023-03-05T06:29:05.506Z,21.27
2023-03-05T06:31:32.811Z,19.83
2023-03-05T06:34:03.949Z,22.08
2023-03-05T06:36:31.275Z,20.77
2023-03-05T06:38:58.484Z,19.75
2023-03-05T06:41:28.294Z,19.20
2023-03-05T06:43:55.654Z,20.38
2023-03-05T06:46:30.864Z,20.23
2023-03-05T06:48:59.845Z,19.02
2023-03-05T06:51:36.811Z,17.83
2023-03-05T06:54:07.027Z,17.92
2023-03-05T06:56:36.368Z,18.52
2023-03-05T06:59:03.161Z,22.27
2023-03-05T07:01:29.954Z,23.63
2023-03-05T07:04:00.637Z,21.17
2023-03-05T07:06:27.804Z,22.63
2023-03-05T07:08:59.184Z,20.02
2023-03-05T07:11:26.011Z,20.30
2023-03-05T07:13:52.988Z,20.17
2023-03-05T07:16:26.623Z,20.42
2023-03-05T07:18:54.645Z,21.10
2023-03-05T07:21:24.205Z,20.40
2023-03-05T07:23:52.987Z,20.50
2023-03-05T07:26:20.171Z,19.73
2023-03-05T07:28:47.123Z,21.20
2023-03-05T07:31:19.956Z,20.70
2023-03-05T07:33:48.442Z,20.30
2023-03-05T07:36:15.909Z,20.95
2023-03-05T07:38:42.937Z,19.58
2023-03-05T07:41:12.529Z,20.67
2023-03-05T07:43:39.461Z,19.95
2023-03-05T07:46:08.628Z,21.88
2023-03-05T07:48:35.461Z,22.17
2023-03-05T07:51:03.525Z,22.00
2023-03-05T07:53:30.463Z,20.23
2023-03-05T07:55:57.289Z,21.60
2023-03-05T07:58:24.294Z,21.60
2023-03-05T08:00:50.996Z,20.83
2023-03-05T08:03:18.069Z,21.00
2023-03-05T08:05:45.453Z,21.52
2023-03-05T08:08:12.213Z,21.42
2023-03-05T08:10:38.959Z,28.75
2023-03-05T08:13:06.460Z,22.65
2023-03-05T08:15:33.398Z,20.42
2023-03-05T08:18:00.390Z,20.85
2023-03-05T08:20:27.103Z,20.08
2023-03-05T08:22:53.975Z,20.65
2023-03-05T08:25:20.703Z,22.17
2023-03-05T08:27:48.208Z,24.15
2023-03-05T08:30:18.148Z,24.05
2023-03-05T08:32:45.065Z,20.38
2023-03-05T08:35:12.323Z,21.33
2023-03-05T08:37:39.213Z,27.45
2023-03-05T08:40:06.776Z,27.63
2023-03-05T08:42:33.456Z,22.52
2023-03-05T08:45:00.238Z,21.13
2023-03-05T08:47:28.219Z,25.55
2023-03-05T08:49:57.336Z,34.47
2023-03-05T08:52:25.477Z,31.05
2023-03-05T08:54:52.313Z,24.85
2023-03-05T08:57:19.043Z,21.60
2023-03-05T08:59:45.739Z,19.55
2023-03-05T09:02:13.536Z,22.48
2023-03-05T09:04:40.705Z,20.80
2023-03-05T09:07:07.634Z,20.92
2023-03-05T09:09:34.396Z,21.27
2023-03-05T09:12:01.587Z,19.88
2023-03-05T09:14:28.978Z,21.00
2023-03-05T09:16:56.652Z,20.05
2023-03-05T09:19:23.905Z,24.27
2023-03-05T09:21:50.671Z,24.20
2023-03-05T09:24:17.357Z,21.15
2023-03-05T09:26:44.208Z,20.67
2023-03-05T09:29:12.442Z,21.98
2023-03-05T09:31:39.910Z,20.45
2023-03-05T09:34:08.221Z,21.08
2023-03-05T09:36:35.429Z,21.38
2023-03-05T09:39:02.498Z,22.00
2023-03-05T09:41:54.151Z,20.33
2023-03-05T09:44:45.181Z,19.05
2023-03-05T09:47:17.559Z,20.52
2023-03-05T09:50:18.485Z,21.25
2023-03-05T09:52:55.427Z,19.67
2023-03-05T09:55:27.496Z,18.95
2023-03-05T09:57:58.375Z,17.95
2023-03-05T10:00:34.608Z,17.30
2023-03-05T10:03:05.971Z,18.67
2023-03-05T10:06:03.657Z,18.63
2023-03-05T10:08:45.289Z,19.00
2023-03-05T10:11:26.239Z,18.92
2023-03-05T10:13:52.968Z,20.45
2023-03-05T10:16:49.004Z,19.83
2023-03-05T10:19:29.014Z,19.08
2023-03-05T10:22:14.893Z,21.23
2023-03-05T10:25:04.921Z,19.17
2023-03-05T10:27:54.288Z,17.63
2023-03-05T10:30:58.466Z,18.77
2023-03-05T10:33:45.908Z,17.83
2023-03-05T10:36:20.726Z,20.20
2023-03-05T10:39:02.068Z,19.90
2023-03-05T10:41:56.546Z,19.70
2023-03-05T10:44:44.624Z,20.13
2023-03-05T10:47:30.262Z,18.02
2023-03-05T10:49:58.719Z,19.27
2023-03-05T10:52:34.959Z,19.48
2023-03-05T10:55:01.999Z,19.45
2023-03-05T10:57:31.445Z,18.50
2023-03-05T11:00:01.246Z,22.20
2023-03-05T11:02:28.198Z,18.63
2023-03-05T11:04:54.958Z,18.02
2023-03-05T11:07:22.747Z,19.02
2023-03-05T11:10:14.040Z,19.63
2023-03-05T11:12:40.894Z,18.95
2023-03-05T11:15:26.438Z,19.95
2023-03-05T11:18:21.094Z,18.05
2023-03-05T11:20:48.354Z,17.65
2023-03-05T11:23:26.358Z,20.48
2023-03-05T11:25:57.525Z,18.02
2023-03-05T11:28:36.552Z,18.75
2023-03-05T11:31:24.380Z,18.70
2023-03-05T11:33:58.519Z,18.20
2023-03-05T11:36:28.863Z,20.38
2023-03-05T11:38:59.645Z,21.05
2023-03-05T11:41:49.260Z,17.90
2023-03-05T11:44:38.733Z,17.13
2023-03-05T11:47:37.541Z,19.65
2023-03-05T11:50:16.316Z,19.42
2023-03-05T11:52:47.347Z,18.88
2023-03-05T11:55:50.177Z,19.60
2023-03-05T11:58:37.442Z,17.52
2023-03-05T12:01:13.584Z,17.25
2023-03-05T12:03:40.487Z,18.30
2023-03-05T12:06:13.309Z,17.65
2023-03-05T12:08:46.554Z,18.30
2023-03-05T12:11:22.790Z,17.67
2023-03-05T12:13:54.539Z,17.38
2023-03-05T12:16:44.422Z,17.50
2023-03-05T12:19:30.698Z,17.55
2023-03-05T12:21:58.011Z,17.42
2023-03-05T12:24:27.516Z,18.25
2023-03-05T12:27:04.119Z,17.50
2023-03-05T12:29:42.134Z,18.25
2023-03-05T12:32:31.482Z,16.17
2023-03-05T12:34:59.933Z,16.17
2023-03-05T12:37:27.202Z,16.25
2023-03-05T12:40:19.235Z,15.10
2023-03-05T12:43:03.686Z,14.30
2023-03-05T12:45:33.968Z,14.93
2023-03-05T12:48:00.623Z,15.57
2023-03-05T12:50:27.379Z,12.80
2023-03-05T12:52:56.982Z,13.20
2023-03-05T12:55:24.694Z,13.13
2023-03-05T12:58:13.645Z,12.48
2023-03-05T13:00:57.804Z,11.88
2023-03-05T13:03:30.658Z,14.50
2023-03-05T13:06:08.303Z,14.00
2023-03-05T13:08:37.245Z,15.70
2023-03-05T13:11:20.585Z,14.60
2023-03-05T13:13:48.486Z,13.93
2023-03-05T13:16:22.499Z,14.70
2023-03-05T13:18:51.059Z,13.60
2023-03-05T13:21:20.491Z,14.30
2023-03-05T13:23:50.255Z,14.70
2023-03-05T13:26:19.745Z,13.20
2023-03-05T13:29:05.712Z,12.80
2023-03-05T13:31:35.127Z,12.33
2023-03-05T13:34:22.128Z,11.60
2023-03-05T13:37:03.711Z,12.60
2023-03-05T13:39:44.124Z,12.23
2023-03-05T13:42:24.681Z,14.85
2023-03-05T13:44:59.910Z,13.80
2023-03-05T13:47:29.007Z,14.20
2023-03-05T13:50:00.740Z,15.13
2023-03-05T13:52:31.505Z,14.65
2023-03-05T13:55:00.266Z,13.20
2023-03-05T13:57:42.397Z,13.75
2023-03-05T14:00:38.904Z,14.38
2023-03-05T14:03:39.822Z,13.75
2023-03-05T14:06:19.725Z,14.65
2023-03-05T14:08:55.036Z,15.60
2023-03-05T14:11:23.107Z,13.15
2023-03-05T14:14:05.138Z,13.35
2023-03-05T14:16:34.812Z,15.13
2023-03-05T14:19:04.778Z,14.88
2023-03-05T14:21:52.075Z,16.17
2023-03-05T14:24:26.677Z,15.90
2023-03-05T14:26:58.259Z,14.57
2023-03-05T14:29:29.246Z,15.90
2023-03-05T14:32:05.775Z,15.35
2023-03-05T14:34:40.480Z,15.15
2023-03-05T14:37:31.419Z,16.33
2023-03-05T14:40:05.585Z,15.55
2023-03-05T14:42:39.227Z,15.18
2023-03-05T14:45:16.287Z,15.00
2023-03-05T14:47:43.178Z,16.38
2023-03-05T14:50:18.608Z,15.18
2023-03-05T14:52:47.200Z,15.82
2023-03-05T14:55:18.856Z,16.02
2023-03-05T14:57:46.179Z,17.00
2023-03-05T15:00:22.101Z,16.58
2023-03-05T15:02:49.829Z,15.40
2023-03-05T15:05:17.757Z,15.80
2023-03-05T15:07:45.109Z,15.00
2023-03-05T15:10:18.021Z,16.20
2023-03-05T15:12:46.191Z,16.58
2023-03-05T15:15:16.661Z,15.00
2023-03-05T15:17:48.803Z,16.27
2023-03-05T15:20:19.571Z,15.52
2023-03-05T15:22:47.195Z,16.70
2023-03-05T15:25:14.673Z,15.90
2023-03-05T15:27:41.668Z,16.48
2023-03-05T15:30:23.306Z,15.40
2023-03-05T15:32:51.263Z,16.83
2023-03-05T15:35:18.045Z,14.43
2023-03-05T15:37:44.824Z,14.65
2023-03-05T15:40:12.340Z,14.32
2023-03-05T15:42:39.346Z,15.85
2023-03-05T15:45:06.679Z,14.70
2023-03-05T15:47:33.669Z,13.88
2023-03-05T15:50:00.463Z,13.35
2023-03-05T15:52:27.180Z,14.13
2023-03-05T15:54:53.861Z,13.93
2023-03-05T15:57:24.671Z,13.27
2023-03-05T15:59:51.370Z,13.10
2023-03-05T16:02:18.801Z,12.55
2023-03-05T16:04:45.486Z,12.73
2023-03-05T16:07:14.798Z,12.25
2023-03-05T16:09:46.240Z,11.90
2023-03-05T16:12:19.810Z,11.57
2023-03-05T16:14:47.922Z,11.93
2023-03-05T16:17:16.017Z,11.00
2023-03-05T16:19:46.222Z,11.18
2023-03-05T16:22:13.174Z,11.10
2023-03-05T16:24:40.249Z,12.77
2023-03-05T16:27:06.983Z,13.13
2023-03-05T16:29:33.848Z,12.02
2023-03-05T16:32:04.001Z,12.27
2023-03-05T16:34:32.380Z,12.55
2023-03-05T16:37:01.079Z,11.50
2023-03-05T16:39:28.541Z,11.65
2023-03-05T16:41:55.667Z,11.52
2023-03-05T16:44:22.437Z,11.90
2023-03-05T16:46:53.380Z,11.48
2023-03-05T16:49:21.006Z,12.13
2023-03-05T16:51:48.190Z,13.82
2023-03-05T16:54:15.555Z,12.18
2023-03-05T16:56:42.342Z,12.65
2023-03-05T16:59:09.359Z,11.02
2023-03-05T17:01:36.396Z,12.30
2023-03-05T17:04:03.746Z,12.73
2023-03-05T17:06:31.839Z,12.05
2023-03-05T17:08:59.374Z,12.13
2023-03-05T17:11:26.413Z,11.90
2023-03-05T17:13:53.336Z,12.75
2023-03-05T17:16:20.222Z,11.07
2023-03-05T17:18:47.660Z,11.25
2023-03-05T17:21:15.716Z,12.32
2023-03-05T17:23:43.273Z,12.63
2023-03-05T17:26:12.870Z,12.25
2023-03-05T17:28:40.189Z,12.48
2023-03-05T17:31:07.277Z,11.70
2023-03-05T17:33:35.685Z,11.52
2023-03-05T17:36:03.552Z,11.60
2023-03-05T17:38:30.632Z,11.68
2023-03-05T17:40:57.552Z,10.60
2023-03-05T17:43:24.335Z,10.63
2023-03-05T17:45:51.401Z,9.68
2023-03-05T17:48:18.128Z,11.50
2023-03-05T17:50:45.170Z,23.25
2023-03-05T17:53:12.596Z,15.45
2023-03-05T17:55:39.791Z,12.20
2023-03-05T17:58:06.821Z,13.90
2023-03-05T18:00:34.175Z,14.90
2023-03-05T18:03:00.959Z,12.40
2023-03-05T18:05:28.626Z,11.88
2023-03-05T18:07:56.095Z,18.75
2023-03-05T18:10:25.815Z,16.27
2023-03-05T18:12:52.748Z,13.05
2023-03-05T18:15:20.989Z,13.73
2023-03-05T18:17:48.427Z,14.85
2023-03-05T18:20:36.875Z,14.88
2023-03-05T18:23:05.164Z,12.05
2023-03-05T18:25:32.311Z,10.77
2023-03-05T18:28:08.265Z,10.00
2023-03-05T18:30:36.692Z,10.18
2023-03-05T18:33:03.908Z,11.52
2023-03-05T18:35:32.333Z,11.20
2023-03-05T18:37:59.850Z,11.30
2023-03-05T18:40:29.351Z,9.55
2023-03-05T18:42:56.176Z,9.13
2023-03-05T18:45:23.768Z,9.48
2023-03-05T18:47:54.068Z,11.20
2023-03-05T18:50:23.437Z,9.13
2023-03-05T18:52:50.756Z,10.60
2023-03-05T18:55:20.194Z,10.60
2023-03-05T18:57:49.210Z,12.57
2023-03-05T19:00:18.487Z,11.77
2023-03-05T19:02:45.206Z,11.57
2023-03-05T19:05:14.260Z,11.43
2023-03-05T19:07:41.378Z,15.00
2023-03-05T19:10:09.941Z,14.18
2023-03-05T19:12:45.527Z,12.95
2023-03-05T19:15:13.735Z,11.68
2023-03-05T19:17:40.944Z,10.05
2023-03-05T19:20:10.939Z,11.05
2023-03-05T19:22:37.724Z,10.23
2023-03-05T19:25:05.298Z,13.20
2023-03-05T19:27:32.428Z,12.15
2023-03-05T19:30:00.218Z,11.43
2023-03-05T19:32:27.102Z,13.23
2023-03-05T19:34:57.780Z,13.90
2023-03-05T19:37:24.773Z,13.20
2023-03-05T19:39:52.172Z,12.38
2023-03-05T19:42:19.316Z,12.23
2023-03-05T19:44:46.031Z,10.77
2023-03-05T19:47:13.472Z,14.65
2023-03-05T19:49:40.337Z,15.95
2023-03-05T19:52:07.468Z,16.08
2023-03-05T19:54:35.026Z,13.93
2023-03-05T19:57:01.950Z,13.40
2023-03-05T19:59:28.980Z,12.30
2023-03-05T20:01:57.437Z,17.30
2023-03-05T20:04:25.146Z,14.02
2023-03-05T20:06:52.032Z,12.15
2023-03-05T20:09:19.511Z,12.80
2023-03-05T20:11:47.050Z,10.98
2023-03-05T20:14:14.650Z,10.50
2023-03-05T20:16:43.062Z,11.50
2023-03-05T20:19:16.897Z,10.45
2023-03-05T20:21:44.795Z,11.32
2023-03-05T20:24:16.068Z,10.55
2023-03-05T20:26:44.737Z,10.30
2023-03-05T20:29:12.502Z,11.20
2023-03-05T20:31:39.906Z,11.95
2023-03-05T20:34:09.943Z,11.90
2023-03-05T20:36:37.131Z,12.05
2023-03-05T20:39:05.636Z,12.18
2023-03-05T20:41:34.282Z,13.32
2023-03-05T20:44:01.320Z,12.05
2023-03-05T20:46:30.825Z,11.38
2023-03-05T20:49:00.258Z,11.35
2023-03-05T20:51:30.107Z,11.82
2023-03-05T20:54:02.439Z,13.60
2023-03-05T20:56:32.243Z,12.75
2023-03-05T20:59:01.098Z,11.95
2023-03-05T21:01:28.096Z,13.57
2023-03-05T21:03:57.241Z,12.65
2023-03-05T21:06:25.432Z,11.55
2023-03-05T21:08:52.244Z,12.23
2023-03-05T21:11:19.286Z,12.35
2023-03-05T21:13:46.029Z,12.60
2023-03-05T21:16:18.611Z,13.43
2023-03-05T21:18:45.686Z,12.30
2023-03-05T21:21:12.722Z,12.20
2023-03-05T21:23:39.530Z,14.75
2023-03-05T21:26:06.426Z,13.05
2023-03-05T21:28:33.256Z,14.18
2023-03-05T21:31:07.463Z,13.00
2023-03-05T21:33:34.884Z,12.50
2023-03-05T21:36:01.621Z,12.63
2023-03-05T21:38:30.591Z,14.40
2023-03-05T21:40:59.274Z,13.40
2023-03-05T21:43:26.961Z,14.70
2023-03-05T21:45:54.734Z,12.88
2023-03-05T21:48:22.871Z,15.38
2023-03-05T21:50:51.145Z,13.15
2023-03-05T21:53:19.710Z,12.82
2023-03-05T21:56:02.626Z,12.70
2023-03-05T21:58:31.393Z,12.85
2023-03-05T22:00:58.889Z,11.25
2023-03-05T22:03:26.642Z,11.88
2023-03-05T22:05:54.293Z,12.10
2023-03-05T22:08:21.754Z,12.25
2023-03-05T22:10:49.028Z,11.52
2023-03-05T22:13:17.696Z,13.57
2023-03-05T22:15:53.274Z,31.92
2023-03-05T22:18:26.129Z,38.42
2023-03-05T22:20:53.596Z,24.90
2023-03-05T22:23:23.277Z,14.60
2023-03-05T22:26:02.048Z,17.17
2023-03-05T22:28:29.405Z,15.98
2023-03-05T22:30:56.262Z,13.75
2023-03-05T22:33:23.362Z,13.38
2023-03-05T22:35:50.760Z,12.23
2023-03-05T22:38:18.221Z,12.27
2023-03-05T22:40:46.997Z,11.80
2023-03-05T22:43:15.085Z,11.45
2023-03-05T22:45:42.271Z,11.10
2023-03-05T22:48:12.429Z,11.73
2023-03-05T22:50:40.381Z,12.60
2023-03-05T22:53:07.734Z,12.15
2023-03-05T22:55:34.680Z,11.73
2023-03-05T22:58:01.368Z,12.05
2023-03-05T23:00:28.199Z,12.40
2023-03-05T23:02:55.280Z,11.10
2023-03-05T23:05:22.054Z,11.73
2023-03-05T23:07:49.283Z,12.52
2023-03-05T23:10:26.413Z,12.00
2023-03-05T23:12:55.939Z,10.80
2023-03-05T23:15:29.870Z,12.90
2023-03-05T23:17:56.999Z,11.55
2023-03-05T23:20:26.797Z,11.13
2023-03-05T23:22:56.052Z,12.48
2023-03-05T23:25:29.775Z,11.90
2023-03-05T23:27:58.072Z,12.05
2023-03-05T23:30:30.936Z,12.48
2023-03-05T23:33:08.251Z,11.55
2023-03-05T23:35:39.360Z,12.55
2023-03-05T23:38:09.164Z,12.10
2023-03-05T23:40:39.876Z,11.32
2023-03-05T23:43:06.879Z,12.15
2023-03-05T23:45:33.864Z,11.68
2023-03-05T23:48:01.291Z,11.73
2023-03-05T23:50:35.293Z,12.70
2023-03-05T23:53:04.505Z,12.05
2023-03-05T23:55:37.518Z,10.90
2023-03-05T23:58:04.398Z,12.20
